Terminal Aerodrome Forecast
Issued by NWS

Home | Current Version | Previous Version | Text Only | Print | Product List | Glossary On
Versions: 1 2 3 4 5 6 7 8 9 10 11 12 13 14 15 16 17 18 19 20 21 22 23 24 25 26 27 28 29 30 31 32 33 34
000
FTUS43 KLOT 271400 AAA
TAFORD
TAF AMD
KORD 271400Z 2714/2818 07008KT P6SM BKN100
     FM271900 07010KT P6SM SCT080 BKN250
     FM280100 05006KT P6SM FEW080 SCT250
     FM281200 09008KT P6SM BKN060=

USA.gov is the U.S. government's official web portal to all federal, state and local government web resources and services.